sensor_id;sensor_type;location;lat;lon;timestamp;pressure;altitude;pressure_sealevel;temperature;humidity
16355;BME280;8287;51.644;8.494;2022-07-03T00:01:45;100486.06;;;21.17;53.36
16355;BME280;8287;51.644;8.494;2022-07-03T00:04:12;100491.34;;;21.07;53.73
16355;BME280;8287;51.644;8.494;2022-07-03T00:06:39;100490.94;;;21.05;54.15
16355;BME280;8287;51.644;8.494;2022-07-03T00:09:06;100483.53;;;20.98;53.95
16355;BME280;8287;51.644;8.494;2022-07-03T00:11:33;100488.25;;;21.05;54.27
16355;BME280;8287;51.644;8.494;2022-07-03T00:14:01;100481.94;;;20.94;54.71
16355;BME280;8287;51.644;8.494;2022-07-03T00:16:27;100485.88;;;21.00;54.16
16355;BME280;8287;51.644;8.494;2022-07-03T00:18:54;100477.28;;;20.87;54.38
16355;BME280;8287;51.644;8.494;2022-07-03T00:21:24;100480.69;;;20.84;54.58
16355;BME280;8287;51.644;8.494;2022-07-03T00:23:54;100476.59;;;20.97;53.98
16355;BME280;8287;51.644;8.494;2022-07-03T00:26:22;100473.97;;;21.04;53.55
16355;BME280;8287;51.644;8.494;2022-07-03T00:28:50;100480.19;;;21.08;53.75
16355;BME280;8287;51.644;8.494;2022-07-03T00:31:19;100479.41;;;21.08;54.01
16355;BME280;8287;51.644;8.494;2022-07-03T00:33:45;100477.50;;;21.08;53.76
16355;BME280;8287;51.644;8.494;2022-07-03T00:36:12;100472.03;;;21.01;54.51
16355;BME280;8287;51.644;8.494;2022-07-03T00:38:40;100480.16;;;21.05;54.05
16355;BME280;8287;51.644;8.494;2022-07-03T00:41:07;100486.72;;;21.07;53.98
16355;BME280;8287;51.644;8.494;2022-07-03T00:43:34;100488.28;;;21.12;53.67
16355;BME280;8287;51.644;8.494;2022-07-03T00:46:06;100497.88;;;21.06;53.75
16355;BME280;8287;51.644;8.494;2022-07-03T00:48:36;100497.44;;;21.00;53.31
16355;BME280;8287;51.644;8.494;2022-07-03T00:51:05;100486.19;;;20.91;53.84
16355;BME280;8287;51.644;8.494;2022-07-03T00:53:33;100490.97;;;20.75;54.56
16355;BME280;8287;51.644;8.494;2022-07-03T00:56:03;100490.97;;;20.75;54.94
16355;BME280;8287;51.644;8.494;2022-07-03T00:58:32;100487.25;;;20.54;55.89
16355;BME280;8287;51.644;8.494;2022-07-03T01:01:00;100484.91;;;20.52;55.47
16355;BME280;8287;51.644;8.494;2022-07-03T01:03:27;100481.88;;;20.57;55.63
16355;BME280;8287;51.644;8.494;2022-07-03T01:05:56;100474.53;;;20.54;55.81
16355;BME280;8287;51.644;8.494;2022-07-03T01:08:35;100469.16;;;20.54;56.04
16355;BME280;8287;51.644;8.494;2022-07-03T01:11:09;100467.97;;;20.52;55.68
16355;BME280;8287;51.644;8.494;2022-07-03T01:13:43;100469.16;;;20.54;55.71
16355;BME280;8287;51.644;8.494;2022-07-03T01:16:17;100464.56;;;20.55;55.23
16355;BME280;8287;51.644;8.494;2022-07-03T01:18:59;100462.59;;;20.52;55.49
16355;BME280;8287;51.644;8.494;2022-07-03T01:21:41;100462.19;;;20.50;55.11
16355;BME280;8287;51.644;8.494;2022-07-03T01:24:33;100461.50;;;20.56;54.29
16355;BME280;8287;51.644;8.494;2022-07-03T01:27:10;100456.19;;;20.63;54.16
16355;BME280;8287;51.644;8.494;2022-07-03T01:29:45;100447.38;;;20.66;54.80
16355;BME280;8287;51.644;8.494;2022-07-03T01:32:17;100447.38;;;20.66;54.58
16355;BME280;8287;51.644;8.494;2022-07-03T01:34:51;100446.25;;;20.67;54.74
16355;BME280;8287;51.644;8.494;2022-07-03T01:37:20;100453.13;;;20.65;55.04
16355;BME280;8287;51.644;8.494;2022-07-03T01:39:52;100448.03;;;20.56;55.39
16355;BME280;8287;51.644;8.494;2022-07-03T01:42:23;100443.06;;;20.58;54.51
16355;BME280;8287;51.644;8.494;2022-07-03T01:44:51;100445.34;;;20.56;54.71
16355;BME280;8287;51.644;8.494;2022-07-03T01:47:19;100444.19;;;20.57;54.85
16355;BME280;8287;51.644;8.494;2022-07-03T01:49:48;100446.47;;;20.55;54.53
16355;BME280;8287;51.644;8.494;2022-07-03T01:52:16;100437.28;;;20.60;54.01
16355;BME280;8287;51.644;8.494;2022-07-03T01:54:44;100438.94;;;20.68;53.92
16355;BME280;8287;51.644;8.494;2022-07-03T01:57:12;100436.63;;;20.66;53.80
16355;BME280;8287;51.644;8.494;2022-07-03T01:59:40;100431.56;;;20.61;54.23
16355;BME280;8287;51.644;8.494;2022-07-03T02:02:17;100428.53;;;20.66;54.50
16355;BME280;8287;51.644;8.494;2022-07-03T02:04:54;100434.69;;;20.67;54.24
16355;BME280;8287;51.644;8.494;2022-07-03T02:07:31;100434.66;;;20.63;54.72
16355;BME280;8287;51.644;8.494;2022-07-03T02:10:03;100435.34;;;20.57;54.27
16355;BME280;8287;51.644;8.494;2022-07-03T02:12:40;100431.47;;;20.54;54.31
16355;BME280;8287;51.644;8.494;2022-07-03T02:15:17;100431.50;;;20.58;54.25
16355;BME280;8287;51.644;8.494;2022-07-03T02:17:45;100436.84;;;20.54;54.55
16355;BME280;8287;51.644;8.494;2022-07-03T02:20:15;100426.03;;;20.51;55.07
16355;BME280;8287;51.644;8.494;2022-07-03T02:22:44;100430.22;;;20.48;54.61
16355;BME280;8287;51.644;8.494;2022-07-03T02:25:16;100425.16;;;20.40;55.31
16355;BME280;8287;51.644;8.494;2022-07-03T02:27:50;100425.47;;;20.35;56.08
16355;BME280;8287;51.644;8.494;2022-07-03T02:30:23;100425.16;;;20.11;56.61
16355;BME280;8287;51.644;8.494;2022-07-03T02:32:51;100433.72;;;20.20;56.26
16355;BME280;8287;51.644;8.494;2022-07-03T02:35:22;100425.13;;;20.07;56.97
16355;BME280;8287;51.644;8.494;2022-07-03T02:37:53;100434.03;;;20.15;56.64
16355;BME280;8287;51.644;8.494;2022-07-03T02:40:26;100426.31;;;20.10;57.78
16355;BME280;8287;51.644;8.494;2022-07-03T02:43:03;100424.22;;;20.00;57.87
16355;BME280;8287;51.644;8.494;2022-07-03T02:45:40;100428.47;;;20.01;56.70
16355;BME280;8287;51.644;8.494;2022-07-03T02:48:12;100428.59;;;20.08;55.73
16355;BME280;8287;51.644;8.494;2022-07-03T02:50:45;100434.03;;;20.15;55.96
16355;BME280;8287;51.644;8.494;2022-07-03T02:53:20;100443.16;;;20.07;56.88
16355;BME280;8287;51.644;8.494;2022-07-03T02:55:48;100446.84;;;19.95;57.13
16355;BME280;8287;51.644;8.494;2022-07-03T02:58:27;100443.56;;;19.83;58.24
16355;BME280;8287;51.644;8.494;2022-07-03T03:01:06;100456.81;;;19.69;58.16
16355;BME280;8287;51.644;8.494;2022-07-03T03:03:34;100450.91;;;19.60;58.06
16355;BME280;8287;51.644;8.494;2022-07-03T03:06:04;100461.59;;;19.56;58.62
16355;BME280;8287;51.644;8.494;2022-07-03T03:08:36;100462.44;;;19.38;60.03
16355;BME280;8287;51.644;8.494;2022-07-03T03:11:19;100453.19;;;19.35;60.38
16355;BME280;8287;51.644;8.494;2022-07-03T03:13:50;100454.63;;;19.29;59.86
16355;BME280;8287;51.644;8.494;2022-07-03T03:16:18;100463.78;;;19.25;60.14
16355;BME280;8287;51.644;8.494;2022-07-03T03:18:45;100454.84;;;19.21;60.82
16355;BME280;8287;51.644;8.494;2022-07-03T03:21:17;100465.19;;;19.19;59.77
16355;BME280;8287;51.644;8.494;2022-07-03T03:23:45;100472.81;;;19.17;60.83
16355;BME280;8287;51.644;8.494;2022-07-03T03:26:14;100472.25;;;19.08;60.90
16355;BME280;8287;51.644;8.494;2022-07-03T03:28:43;100467.66;;;19.08;60.85
16355;BME280;8287;51.644;8.494;2022-07-03T03:31:12;100464.69;;;19.13;60.88
16355;BME280;8287;51.644;8.494;2022-07-03T03:33:41;100470.13;;;19.17;59.98
16355;BME280;8287;51.644;8.494;2022-07-03T03:36:09;100469.31;;;19.16;60.22
16355;BME280;8287;51.644;8.494;2022-07-03T03:38:37;100473.50;;;19.14;60.47
16355;BME280;8287;51.644;8.494;2022-07-03T03:41:04;100470.00;;;19.10;60.70
16355;BME280;8287;51.644;8.494;2022-07-03T03:43:32;100460.44;;;19.12;61.07
16355;BME280;8287;51.644;8.494;2022-07-03T03:45:59;100457.69;;;19.09;60.77
16355;BME280;8287;51.644;8.494;2022-07-03T03:48:26;100460.72;;;19.07;61.43
16355;BME280;8287;51.644;8.494;2022-07-03T03:50:55;100458.44;;;19.09;61.10
16355;BME280;8287;51.644;8.494;2022-07-03T03:53:23;100459.59;;;19.08;61.19
16355;BME280;8287;51.644;8.494;2022-07-03T03:55:58;100460.31;;;19.05;61.43
16355;BME280;8287;51.644;8.494;2022-07-03T03:58:26;100470.25;;;19.05;61.28
16355;BME280;8287;51.644;8.494;2022-07-03T04:00:55;100462.63;;;19.07;60.70
16355;BME280;8287;51.644;8.494;2022-07-03T04:03:22;100466.81;;;19.04;61.43
16355;BME280;8287;51.644;8.494;2022-07-03T04:05:48;100464.47;;;19.03;62.05
16355;BME280;8287;51.644;8.494;2022-07-03T04:08:17;100463.34;;;19.04;62.26
16355;BME280;8287;51.644;8.494;2022-07-03T04:10:44;100461.78;;;19.03;62.28
16355;BME280;8287;51.644;8.494;2022-07-03T04:13:10;100462.63;;;19.07;61.74
16355;BME280;8287;51.644;8.494;2022-07-03T04:15:37;100454.88;;;19.02;62.05
16355;BME280;8287;51.644;8.494;2022-07-03T04:18:04;100451.72;;;18.96;62.34
16355;BME280;8287;51.644;8.494;2022-07-03T04:20:32;100464.06;;;19.01;62.52
16355;BME280;8287;51.644;8.494;2022-07-03T04:22:59;100456.00;;;19.01;62.04
16355;BME280;8287;51.644;8.494;2022-07-03T04:25:27;100460.00;;;19.10;60.87
16355;BME280;8287;51.644;8.494;2022-07-03T04:27:54;100460.91;;;19.18;60.52
16355;BME280;8287;51.644;8.494;2022-07-03T04:30:21;100461.00;;;19.21;60.79
16355;BME280;8287;51.644;8.494;2022-07-03T04:32:48;100472.25;;;19.27;61.41
16355;BME280;8287;51.644;8.494;2022-07-03T04:35:14;100462.91;;;19.21;62.34
16355;BME280;8287;51.644;8.494;2022-07-03T04:37:41;100463.78;;;19.25;62.18
16355;BME280;8287;51.644;8.494;2022-07-03T04:40:09;100453.03;;;19.25;62.56
16355;BME280;8287;51.644;8.494;2022-07-03T04:42:38;100454.25;;;19.31;62.65
16355;BME280;8287;51.644;8.494;2022-07-03T04:45:05;100459.34;;;19.36;62.17
16355;BME280;8287;51.644;8.494;2022-07-03T04:47:32;100464.84;;;19.43;61.59
16355;BME280;8287;51.644;8.494;2022-07-03T04:49:59;100463.16;;;19.57;60.92
16355;BME280;8287;51.644;8.494;2022-07-03T04:52:25;100466.72;;;19.65;61.15
16355;BME280;8287;51.644;8.494;2022-07-03T04:54:52;100462.13;;;19.65;61.74
16355;BME280;8287;51.644;8.494;2022-07-03T04:57:19;100467.22;;;19.74;61.63
16355;BME280;8287;51.644;8.494;2022-07-03T04:59:47;100460.00;;;19.78;61.48
16355;BME280;8287;51.644;8.494;2022-07-03T05:02:13;100462.41;;;19.83;61.54
16355;BME280;8287;51.644;8.494;2022-07-03T05:04:40;100470.66;;;19.97;59.97
16355;BME280;8287;51.644;8.494;2022-07-03T05:07:06;100466.25;;;20.08;60.18
16355;BME280;8287;51.644;8.494;2022-07-03T05:09:33;100474.91;;;20.24;59.71
16355;BME280;8287;51.644;8.494;2022-07-03T05:12:00;100464.25;;;20.31;59.21
16355;BME280;8287;51.644;8.494;2022-07-03T05:14:26;100465.13;;;20.38;59.14
16355;BME280;8287;51.644;8.494;2022-07-03T05:16:54;100465.22;;;20.45;59.55
16355;BME280;8287;51.644;8.494;2022-07-03T05:19:21;100469.94;;;20.55;59.34
16355;BME280;8287;51.644;8.494;2022-07-03T05:21:47;100472.00;;;20.65;59.11
16355;BME280;8287;51.644;8.494;2022-07-03T05:24:14;100466.69;;;20.72;59.10
16355;BME280;8287;51.644;8.494;2022-07-03T05:26:40;100472.56;;;20.81;59.16
16355;BME280;8287;51.644;8.494;2022-07-03T05:29:07;100468.47;;;20.94;58.39
16355;BME280;8287;51.644;8.494;2022-07-03T05:31:34;100475.97;;;21.11;57.56
16355;BME280;8287;51.644;8.494;2022-07-03T05:34:02;100475.31;;;21.21;57.75
16355;BME280;8287;51.644;8.494;2022-07-03T05:36:28;100480.41;;;21.33;57.28
16355;BME280;8287;51.644;8.494;2022-07-03T05:38:55;100484.72;;;21.41;57.25
16355;BME280;8287;51.644;8.494;2022-07-03T05:41:39;100482.88;;;21.48;57.74
16355;BME280;8287;51.644;8.494;2022-07-03T05:44:05;100491.84;;;21.59;57.68
16355;BME280;8287;51.644;8.494;2022-07-03T05:46:32;100486.56;;;21.73;57.28
16355;BME280;8287;51.644;8.494;2022-07-03T05:48:59;100498.94;;;21.81;56.69
16355;BME280;8287;51.644;8.494;2022-07-03T05:51:27;100495.16;;;21.89;56.84
16355;BME280;8287;51.644;8.494;2022-07-03T05:53:54;100495.63;;;22.02;56.76
16355;BME280;8287;51.644;8.494;2022-07-03T05:56:20;100499.94;;;22.13;56.67
16355;BME280;8287;51.644;8.494;2022-07-03T05:58:47;100502.31;;;22.22;56.38
16355;BME280;8287;51.644;8.494;2022-07-03T06:01:14;100498.50;;;22.26;56.75
16355;BME280;8287;51.644;8.494;2022-07-03T06:03:40;100497.75;;;22.33;56.65
16355;BME280;8287;51.644;8.494;2022-07-03T06:06:07;100501.66;;;22.39;56.95
16355;BME280;8287;51.644;8.494;2022-07-03T06:08:35;100499.78;;;22.46;56.90
16355;BME280;8287;51.644;8.494;2022-07-03T06:11:02;100488.63;;;22.51;56.08
16355;BME280;8287;51.644;8.494;2022-07-03T06:13:28;100494.03;;;22.58;55.28
16355;BME280;8287;51.644;8.494;2022-07-03T06:15:55;100491.75;;;22.64;54.95
16355;BME280;8287;51.644;8.494;2022-07-03T06:18:22;100494.09;;;22.76;54.54
16355;BME280;8287;51.644;8.494;2022-07-03T06:20:48;100496.47;;;22.84;54.85
16355;BME280;8287;51.644;8.494;2022-07-03T06:23:15;100494.94;;;22.94;54.13
16355;BME280;8287;51.644;8.494;2022-07-03T06:25:43;100498.44;;;23.08;53.54
16355;BME280;8287;51.644;8.494;2022-07-03T06:28:09;100495.03;;;23.15;53.70
16355;BME280;8287;51.644;8.494;2022-07-03T06:30:36;100492.72;;;23.27;52.61
16355;BME280;8287;51.644;8.494;2022-07-03T06:33:03;100496.97;;;23.35;52.57
16355;BME280;8287;51.644;8.494;2022-07-03T06:35:29;100501.63;;;23.42;52.30
16355;BME280;8287;51.644;8.494;2022-07-03T06:38:00;100500.84;;;23.45;52.66
16355;BME280;8287;51.644;8.494;2022-07-03T06:40:27;100495.06;;;23.53;51.67
16355;BME280;8287;51.644;8.494;2022-07-03T06:42:56;100504.34;;;23.56;51.94
16355;BME280;8287;51.644;8.494;2022-07-03T06:45:23;100503.16;;;23.67;52.35
16355;BME280;8287;51.644;8.494;2022-07-03T06:47:50;100515.16;;;23.80;51.84
16355;BME280;8287;51.644;8.494;2022-07-03T06:50:16;100512.06;;;23.92;52.06
16355;BME280;8287;51.644;8.494;2022-07-03T06:52:43;100501.22;;;24.03;52.72
16355;BME280;8287;51.644;8.494;2022-07-03T06:55:10;100503.53;;;24.15;51.05
16355;BME280;8287;51.644;8.494;2022-07-03T06:57:36;100503.50;;;24.21;51.40
16355;BME280;8287;51.644;8.494;2022-07-03T07:00:06;100511.22;;;24.30;51.70
16355;BME280;8287;51.644;8.494;2022-07-03T07:02:33;100515.06;;;24.43;51.66
16355;BME280;8287;51.644;8.494;2022-07-03T07:04:59;100520.44;;;24.53;52.41
16355;BME280;8287;51.644;8.494;2022-07-03T07:07:26;100511.94;;;24.65;51.95
16355;BME280;8287;51.644;8.494;2022-07-03T07:09:53;100521.50;;;24.80;51.81
16355;BME280;8287;51.644;8.494;2022-07-03T07:12:19;100512.19;;;24.85;50.63
16355;BME280;8287;51.644;8.494;2022-07-03T07:14:46;100517.56;;;24.95;51.17
16355;BME280;8287;51.644;8.494;2022-07-03T07:17:14;100514.44;;;25.04;50.28
16355;BME280;8287;51.644;8.494;2022-07-03T07:19:40;100514.78;;;25.09;50.94
16355;BME280;8287;51.644;8.494;2022-07-03T07:22:07;100517.81;;;25.25;49.74
16355;BME280;8287;51.644;8.494;2022-07-03T07:24:34;100520.47;;;25.36;48.11
16355;BME280;8287;51.644;8.494;2022-07-03T07:27:00;100515.75;;;25.43;46.97
16355;BME280;8287;51.644;8.494;2022-07-03T07:29:27;100514.13;;;25.56;47.22
16355;BME280;8287;51.644;8.494;2022-07-03T07:31:54;100514.03;;;25.63;46.04
16355;BME280;8287;51.644;8.494;2022-07-03T07:34:22;100524.00;;;25.77;46.20
16355;BME280;8287;51.644;8.494;2022-07-03T07:36:48;100520.47;;;25.87;45.48
16355;BME280;8287;51.644;8.494;2022-07-03T07:39:15;100525.03;;;25.97;44.95
16355;BME280;8287;51.644;8.494;2022-07-03T07:41:41;100528.03;;;26.09;45.19
16355;BME280;8287;51.644;8.494;2022-07-03T07:44:08;100525.09;;;25.90;44.67
16355;BME280;8287;51.644;8.494;2022-07-03T07:46:35;100526.06;;;26.10;45.13
16355;BME280;8287;51.644;8.494;2022-07-03T07:49:01;100523.16;;;26.31;44.42
16355;BME280;8287;51.644;8.494;2022-07-03T07:51:29;100531.78;;;26.19;44.51
16355;BME280;8287;51.644;8.494;2022-07-03T07:53:56;100532.31;;;26.44;45.14
16355;BME280;8287;51.644;8.494;2022-07-03T07:56:24;100529.91;;;26.53;45.24
16355;BME280;8287;51.644;8.494;2022-07-03T07:58:51;100535.25;;;26.23;43.20
16355;BME280;8287;51.644;8.494;2022-07-03T08:01:18;100531.22;;;26.38;44.95
16355;BME280;8287;51.644;8.494;2022-07-03T08:04:02;100535.75;;;26.81;43.85
16355;BME280;8287;51.644;8.494;2022-07-03T08:06:48;100538.34;;;26.92;42.85
16355;BME280;8287;51.644;8.494;2022-07-03T08:09:15;100544.72;;;27.12;42.64
16355;BME280;8287;51.644;8.494;2022-07-03T08:11:42;100532.94;;;27.22;41.71
16355;BME280;8287;51.644;8.494;2022-07-03T08:14:09;100527.78;;;27.27;42.79
16355;BME280;8287;51.644;8.494;2022-07-03T08:16:35;100530.63;;;27.47;40.94
16355;BME280;8287;51.644;8.494;2022-07-03T08:19:04;100532.84;;;27.52;39.92
16355;BME280;8287;51.644;8.494;2022-07-03T08:21:31;100530.59;;;27.70;41.26
16355;BME280;8287;51.644;8.494;2022-07-03T08:24:00;100534.81;;;27.51;42.17
16355;BME280;8287;51.644;8.494;2022-07-03T08:26:27;100528.78;;;27.63;41.02
16355;BME280;8287;51.644;8.494;2022-07-03T08:28:53;100525.31;;;27.63;40.49
16355;BME280;8287;51.644;8.494;2022-07-03T08:31:20;100524.97;;;27.84;40.95
16355;BME280;8287;51.644;8.494;2022-07-03T08:33:46;100523.59;;;27.23;39.40
16355;BME280;8287;51.644;8.494;2022-07-03T08:36:13;100519.91;;;27.59;39.90
16355;BME280;8287;51.644;8.494;2022-07-03T08:38:40;100506.63;;;27.88;39.79
16355;BME280;8287;51.644;8.494;2022-07-03T08:41:08;100515.75;;;27.51;36.52
16355;BME280;8287;51.644;8.494;2022-07-03T08:43:36;100514.63;;;27.49;40.30
16355;BME280;8287;51.644;8.494;2022-07-03T08:46:06;100515.38;;;27.26;39.98
16355;BME280;8287;51.644;8.494;2022-07-03T08:48:37;100513.16;;;27.90;39.04
16355;BME280;8287;51.644;8.494;2022-07-03T08:51:03;100516.78;;;28.07;40.27
16355;BME280;8287;51.644;8.494;2022-07-03T08:53:30;100516.59;;;28.17;41.57
16355;BME280;8287;51.644;8.494;2022-07-03T08:56:00;100518.34;;;28.27;39.72
16355;BME280;8287;51.644;8.494;2022-07-03T08:58:31;100513.84;;;27.98;38.37
16355;BME280;8287;51.644;8.494;2022-07-03T09:00:58;100516.53;;;28.20;38.45
16355;BME280;8287;51.644;8.494;2022-07-03T09:03:26;100518.75;;;28.25;38.80
16355;BME280;8287;51.644;8.494;2022-07-03T09:05:53;100513.31;;;28.25;37.73
16355;BME280;8287;51.644;8.494;2022-07-03T09:08:20;100518.75;;;28.25;36.96
16355;BME280;8287;51.644;8.494;2022-07-03T09:10:49;100523.00;;;28.26;37.82
16355;BME280;8287;51.644;8.494;2022-07-03T09:13:16;100517.09;;;28.31;37.88
16355;BME280;8287;51.644;8.494;2022-07-03T09:15:44;100519.63;;;28.00;38.74
16355;BME280;8287;51.644;8.494;2022-07-03T09:18:11;100525.28;;;28.31;37.79
16355;BME280;8287;51.644;8.494;2022-07-03T09:20:39;100514.59;;;28.40;37.18
16355;BME280;8287;51.644;8.494;2022-07-03T09:23:11;100520.53;;;28.35;37.83
16355;BME280;8287;51.644;8.494;2022-07-03T09:25:55;100515.66;;;28.46;38.26
16355;BME280;8287;51.644;8.494;2022-07-03T09:28:23;100518.16;;;28.57;36.72
16355;BME280;8287;51.644;8.494;2022-07-03T09:31:01;100521.94;;;28.43;36.34
16355;BME280;8287;51.644;8.494;2022-07-03T09:33:28;100517.28;;;28.21;36.52
16355;BME280;8287;51.644;8.494;2022-07-03T09:35:55;100516.75;;;28.29;37.46
16355;BME280;8287;51.644;8.494;2022-07-03T09:38:23;100507.47;;;28.46;37.05
16355;BME280;8287;51.644;8.494;2022-07-03T09:40:51;100513.38;;;28.22;37.10
16355;BME280;8287;51.644;8.494;2022-07-03T09:43:23;100517.84;;;28.13;38.01
16355;BME280;8287;51.644;8.494;2022-07-03T09:45:52;100511.31;;;28.49;36.41
16355;BME280;8287;51.644;8.494;2022-07-03T09:48:26;100514.53;;;28.63;35.26
16355;BME280;8287;51.644;8.494;2022-07-03T09:51:18;100510.97;;;28.66;35.83
16355;BME280;8287;51.644;8.494;2022-07-03T09:53:56;100509.88;;;28.80;38.58
16355;BME280;8287;51.644;8.494;2022-07-03T09:56:25;100518.41;;;28.82;37.01
16355;BME280;8287;51.644;8.494;2022-07-03T09:59:00;100517.03;;;28.93;35.58
16355;BME280;8287;51.644;8.494;2022-07-03T10:01:27;100520.25;;;28.88;37.28
16355;BME280;8287;51.644;8.494;2022-07-03T10:04:08;100512.75;;;28.73;36.79
16355;BME280;8287;51.644;8.494;2022-07-03T10:06:52;100505.69;;;28.95;37.97
16355;BME280;8287;51.644;8.494;2022-07-03T10:09:31;100509.16;;;28.60;36.91
16355;BME280;8287;51.644;8.494;2022-07-03T10:11:59;100497.41;;;28.43;36.17
16355;BME280;8287;51.644;8.494;2022-07-03T10:14:27;100502.78;;;28.66;38.35
16355;BME280;8287;51.644;8.494;2022-07-03T10:16:55;100495.06;;;28.81;37.18
16355;BME280;8287;51.644;8.494;2022-07-03T10:19:27;100492.16;;;29.07;35.27
16355;BME280;8287;51.644;8.494;2022-07-03T10:21:55;100494.19;;;29.03;36.05
16355;BME280;8287;51.644;8.494;2022-07-03T10:24:23;100488.81;;;29.16;36.44
16355;BME280;8287;51.644;8.494;2022-07-03T10:26:50;100487.47;;;29.40;34.99
16355;BME280;8287;51.644;8.494;2022-07-03T10:29:20;100499.94;;;29.41;34.61
16355;BME280;8287;51.644;8.494;2022-07-03T10:31:47;100496.22;;;29.51;35.40
16355;BME280;8287;51.644;8.494;2022-07-03T10:34:18;100496.81;;;29.58;35.38
16355;BME280;8287;51.644;8.494;2022-07-03T10:36:50;100501.38;;;29.45;35.74
16355;BME280;8287;51.644;8.494;2022-07-03T10:39:28;100500.22;;;29.46;37.12
16355;BME280;8287;51.644;8.494;2022-07-03T10:41:57;100497.22;;;29.57;36.79
16355;BME280;8287;51.644;8.494;2022-07-03T10:45:03;100501.81;;;29.28;36.23
16355;BME280;8287;51.644;8.494;2022-07-03T10:47:43;100504.50;;;29.63;34.76
16355;BME280;8287;51.644;8.494;2022-07-03T10:50:12;100495.28;;;29.57;33.91
16355;BME280;8287;51.644;8.494;2022-07-03T10:52:40;100493.13;;;29.65;35.37
16355;BME280;8287;51.644;8.494;2022-07-03T10:55:08;100485.53;;;29.72;36.57
16355;BME280;8287;51.644;8.494;2022-07-03T10:57:35;100482.78;;;29.88;36.96
16355;BME280;8287;51.644;8.494;2022-07-03T11:00:15;100474.97;;;30.03;34.10
16355;BME280;8287;51.644;8.494;2022-07-03T11:02:44;100463.16;;;30.06;33.11
16355;BME280;8287;51.644;8.494;2022-07-03T11:05:17;100465.09;;;29.93;34.07
16355;BME280;8287;51.644;8.494;2022-07-03T11:08:19;100458.78;;;29.80;35.08
16355;BME280;8287;51.644;8.494;2022-07-03T11:10:46;100475.28;;;29.76;35.53
16355;BME280;8287;51.644;8.494;2022-07-03T11:13:33;100473.75;;;29.27;35.61
16355;BME280;8287;51.644;8.494;2022-07-03T11:15:59;100451.56;;;29.73;34.56
16355;BME280;8287;51.644;8.494;2022-07-03T11:18:30;100458.78;;;29.80;33.94
16355;BME280;8287;51.644;8.494;2022-07-03T11:21:21;100444.84;;;29.90;34.35
16355;BME280;8287;51.644;8.494;2022-07-03T11:24:07;100459.94;;;30.11;34.72
16355;BME280;8287;51.644;8.494;2022-07-03T11:26:37;100449.44;;;29.93;34.74
16355;BME280;8287;51.644;8.494;2022-07-03T11:29:04;100447.84;;;29.80;35.55
16355;BME280;8287;51.644;8.494;2022-07-03T11:31:31;100453.78;;;30.07;34.94
16355;BME280;8287;51.644;8.494;2022-07-03T11:33:58;100448.16;;;30.26;34.39
16355;BME280;8287;51.644;8.494;2022-07-03T11:36:26;100445.34;;;30.30;34.23
16355;BME280;8287;51.644;8.494;2022-07-03T11:39:08;100447.97;;;30.33;33.58
16355;BME280;8287;51.644;8.494;2022-07-03T11:41:43;100452.69;;;30.45;33.79
16355;BME280;8287;51.644;8.494;2022-07-03T11:44:15;100449.31;;;30.54;33.76
16355;BME280;8287;51.644;8.494;2022-07-03T11:46:47;100445.56;;;30.35;31.94
16355;BME280;8287;51.644;8.494;2022-07-03T11:49:15;100451.72;;;30.39;33.62
16355;BME280;8287;51.644;8.494;2022-07-03T11:51:52;100448.16;;;30.26;33.93
16355;BME280;8287;51.644;8.494;2022-07-03T11:54:21;100444.81;;;30.35;35.78
16355;BME280;8287;51.644;8.494;2022-07-03T11:56:48;100443.84;;;30.54;33.79
16355;BME280;8287;51.644;8.494;2022-07-03T11:59:14;100440.94;;;30.73;33.14
16355;BME280;8287;51.644;8.494;2022-07-03T12:01:41;100446.19;;;30.80;34.37
16355;BME280;8287;51.644;8.494;2022-07-03T12:04:09;100443.13;;;30.91;33.62
16355;BME280;8287;51.644;8.494;2022-07-03T12:06:39;100441.59;;;30.90;34.36
16355;BME280;8287;51.644;8.494;2022-07-03T12:09:15;100439.94;;;30.80;33.45
16355;BME280;8287;51.644;8.494;2022-07-03T12:11:51;100441.59;;;30.77;32.16
16355;BME280;8287;51.644;8.494;2022-07-03T12:14:33;100447.47;;;30.63;33.25
16355;BME280;8287;51.644;8.494;2022-07-03T12:17:00;100432.59;;;30.52;32.54
16355;BME280;8287;51.644;8.494;2022-07-03T12:19:26;100448.31;;;30.48;33.37
16355;BME280;8287;51.644;8.494;2022-07-03T12:21:53;100444.03;;;30.34;32.61
16355;BME280;8287;51.644;8.494;2022-07-03T12:24:20;100446.09;;;29.41;34.75
16355;BME280;8287;51.644;8.494;2022-07-03T12:26:48;100435.34;;;29.34;35.37
16355;BME280;8287;51.644;8.494;2022-07-03T12:29:16;100430.00;;;30.20;34.97
16355;BME280;8287;51.644;8.494;2022-07-03T12:31:45;100426.91;;;30.71;33.23
16355;BME280;8287;51.644;8.494;2022-07-03T12:34:13;100427.16;;;30.89;32.61
16355;BME280;8287;51.644;8.494;2022-07-03T12:36:42;100418.56;;;31.12;32.17
16355;BME280;8287;51.644;8.494;2022-07-03T12:39:19;100424.75;;;31.16;31.65
16355;BME280;8287;51.644;8.494;2022-07-03T12:41:46;100427.81;;;30.93;30.46
16355;BME280;8287;51.644;8.494;2022-07-03T12:44:14;100423.09;;;30.81;31.14
16355;BME280;8287;51.644;8.494;2022-07-03T12:46:46;100417.06;;;30.99;30.84
16355;BME280;8287;51.644;8.494;2022-07-03T12:49:13;100415.72;;;31.28;31.54
16355;BME280;8287;51.644;8.494;2022-07-03T12:51:42;100415.16;;;31.46;31.55
16355;BME280;8287;51.644;8.494;2022-07-03T12:54:11;100407.50;;;31.62;31.23
16355;BME280;8287;51.644;8.494;2022-07-03T12:56:37;100399.16;;;31.78;30.48
16355;BME280;8287;51.644;8.494;2022-07-03T12:59:04;100396.09;;;31.98;31.24
16355;BME280;8287;51.644;8.494;2022-07-03T13:01:44;100398.50;;;32.17;30.83
16355;BME280;8287;51.644;8.494;2022-07-03T13:04:12;100396.59;;;32.26;31.38
16355;BME280;8287;51.644;8.494;2022-07-03T13:06:43;100402.47;;;32.37;30.44
16355;BME280;8287;51.644;8.494;2022-07-03T13:09:10;100399.72;;;32.16;29.95
16355;BME280;8287;51.644;8.494;2022-07-03T13:11:38;100406.81;;;32.05;31.06
16355;BME280;8287;51.644;8.494;2022-07-03T13:14:10;100407.16;;;32.37;32.24